sensor_id;sensor_type;location;lat;lon;timestamp;P1;durP1;ratioP1;P2;durP2;ratioP2
73170;SDS011;61381;50.118;19.962;2023-02-21T00:02:24;2.47;;;1.40;;
73170;SDS011;61381;50.118;19.962;2023-02-21T00:07:25;3.35;;;1.63;;
73170;SDS011;61381;50.118;19.962;2023-02-21T00:12:28;3.58;;;1.30;;
73170;SDS011;61381;50.118;19.962;2023-02-21T00:17:29;2.95;;;1.67;;
73170;SDS011;61381;50.118;19.962;2023-02-21T00:22:30;4.25;;;1.75;;
73170;SDS011;61381;50.118;19.962;2023-02-21T00:27:33;3.17;;;1.73;;
73170;SDS011;61381;50.118;19.962;2023-02-21T00:32:34;1.92;;;1.10;;
73170;SDS011;61381;50.118;19.962;2023-02-21T00:37:35;3.00;;;1.65;;
73170;SDS011;61381;50.118;19.962;2023-02-21T00:42:38;3.55;;;1.50;;
73170;SDS011;61381;50.118;19.962;2023-02-21T00:47:39;2.95;;;1.50;;
73170;SDS011;61381;50.118;19.962;2023-02-21T00:52:40;2.45;;;1.30;;
73170;SDS011;61381;50.118;19.962;2023-02-21T00:57:42;1.90;;;1.20;;
73170;SDS011;61381;50.118;19.962;2023-02-21T01:02:43;2.88;;;1.23;;
73170;SDS011;61381;50.118;19.962;2023-02-21T01:07:45;3.80;;;1.50;;
73170;SDS011;61381;50.118;19.962;2023-02-21T01:12:47;3.08;;;1.42;;
73170;SDS011;61381;50.118;19.962;2023-02-21T01:17:48;3.95;;;1.13;;
73170;SDS011;61381;50.118;19.962;2023-02-21T01:22:49;3.05;;;1.85;;
73170;SDS011;61381;50.118;19.962;2023-02-21T01:27:53;2.75;;;1.25;;
73170;SDS011;61381;50.118;19.962;2023-02-21T01:32:54;3.33;;;1.30;;
73170;SDS011;61381;50.118;19.962;2023-02-21T01:37:56;3.55;;;1.27;;
73170;SDS011;61381;50.118;19.962;2023-02-21T01:42:58;2.47;;;1.50;;
73170;SDS011;61381;50.118;19.962;2023-02-21T01:47:59;2.42;;;1.52;;
73170;SDS011;61381;50.118;19.962;2023-02-21T01:53:01;3.95;;;1.08;;
73170;SDS011;61381;50.118;19.962;2023-02-21T01:58:05;2.70;;;1.30;;
73170;SDS011;61381;50.118;19.962;2023-02-21T02:03:07;2.72;;;1.33;;
73170;SDS011;61381;50.118;19.962;2023-02-21T02:08:10;3.42;;;1.48;;
73170;SDS011;61381;50.118;19.962;2023-02-21T02:13:18;3.33;;;1.52;;
73170;SDS011;61381;50.118;19.962;2023-02-21T02:24:24;5.22;;;1.55;;
73170;SDS011;61381;50.118;19.962;2023-02-21T02:29:54;3.85;;;1.40;;
73170;SDS011;61381;50.118;19.962;2023-02-21T02:35:13;3.28;;;1.52;;
73170;SDS011;61381;50.118;19.962;2023-02-21T02:40:21;3.80;;;1.92;;
73170;SDS011;61381;50.118;19.962;2023-02-21T02:45:29;2.72;;;1.70;;
73170;SDS011;61381;50.118;19.962;2023-02-21T02:50:35;2.53;;;1.38;;
73170;SDS011;61381;50.118;19.962;2023-02-21T02:55:39;3.03;;;1.58;;
73170;SDS011;61381;50.118;19.962;2023-02-21T03:00:47;6.32;;;1.80;;
73170;SDS011;61381;50.118;19.962;2023-02-21T03:06:02;3.08;;;1.60;;
73170;SDS011;61381;50.118;19.962;2023-02-21T03:11:13;2.28;;;1.50;;
73170;SDS011;61381;50.118;19.962;2023-02-21T03:16:18;4.00;;;1.63;;
73170;SDS011;61381;50.118;19.962;2023-02-21T03:21:26;2.50;;;1.40;;
73170;SDS011;61381;50.118;19.962;2023-02-21T03:26:30;3.03;;;2.33;;
73170;SDS011;61381;50.118;19.962;2023-02-21T03:31:36;2.92;;;1.73;;
73170;SDS011;61381;50.118;19.962;2023-02-21T03:36:46;4.22;;;2.15;;
73170;SDS011;61381;50.118;19.962;2023-02-21T03:41:47;3.25;;;2.10;;
73170;SDS011;61381;50.118;19.962;2023-02-21T03:46:49;3.00;;;2.10;;
73170;SDS011;61381;50.118;19.962;2023-02-21T03:51:51;5.55;;;2.83;;
73170;SDS011;61381;50.118;19.962;2023-02-21T03:56:52;5.00;;;2.45;;
73170;SDS011;61381;50.118;19.962;2023-02-21T04:01:53;4.25;;;2.30;;
73170;SDS011;61381;50.118;19.962;2023-02-21T04:06:56;2.63;;;2.10;;
73170;SDS011;61381;50.118;19.962;2023-02-21T04:11:57;3.78;;;2.25;;
73170;SDS011;61381;50.118;19.962;2023-02-21T04:16:58;3.63;;;2.08;;
73170;SDS011;61381;50.118;19.962;2023-02-21T04:22:01;2.72;;;1.85;;
73170;SDS011;61381;50.118;19.962;2023-02-21T04:27:02;2.00;;;1.52;;
73170;SDS011;61381;50.118;19.962;2023-02-21T04:32:03;2.20;;;1.55;;
73170;SDS011;61381;50.118;19.962;2023-02-21T04:37:06;2.80;;;1.98;;
73170;SDS011;61381;50.118;19.962;2023-02-21T04:42:07;4.43;;;2.60;;
73170;SDS011;61381;50.118;19.962;2023-02-21T04:47:08;4.10;;;2.55;;
73170;SDS011;61381;50.118;19.962;2023-02-21T04:52:10;5.03;;;3.28;;
73170;SDS011;61381;50.118;19.962;2023-02-21T04:57:12;7.63;;;3.45;;
73170;SDS011;61381;50.118;19.962;2023-02-21T05:02:13;4.82;;;3.22;;
73170;SDS011;61381;50.118;19.962;2023-02-21T05:07:16;4.50;;;3.70;;
73170;SDS011;61381;50.118;19.962;2023-02-21T05:12:17;4.88;;;2.72;;
73170;SDS011;61381;50.118;19.962;2023-02-21T05:17:18;3.72;;;2.70;;
73170;SDS011;61381;50.118;19.962;2023-02-21T05:22:21;3.03;;;2.35;;
73170;SDS011;61381;50.118;19.962;2023-02-21T05:27:22;2.60;;;1.88;;
73170;SDS011;61381;50.118;19.962;2023-02-21T05:32:23;2.80;;;1.92;;
73170;SDS011;61381;50.118;19.962;2023-02-21T05:37:26;3.40;;;2.15;;
73170;SDS011;61381;50.118;19.962;2023-02-21T05:42:27;3.70;;;2.20;;
73170;SDS011;61381;50.118;19.962;2023-02-21T05:47:28;2.45;;;1.48;;
73170;SDS011;61381;50.118;19.962;2023-02-21T05:52:31;4.18;;;1.98;;
73170;SDS011;61381;50.118;19.962;2023-02-21T05:57:36;3.03;;;1.90;;
73170;SDS011;61381;50.118;19.962;2023-02-21T06:02:38;3.28;;;1.70;;
73170;SDS011;61381;50.118;19.962;2023-02-21T06:07:40;3.33;;;2.30;;
73170;SDS011;61381;50.118;19.962;2023-02-21T06:12:41;3.60;;;2.38;;
73170;SDS011;61381;50.118;19.962;2023-02-21T06:17:42;3.47;;;2.35;;
73170;SDS011;61381;50.118;19.962;2023-02-21T06:22:45;4.45;;;1.95;;
73170;SDS011;61381;50.118;19.962;2023-02-21T06:27:46;3.92;;;2.90;;
73170;SDS011;61381;50.118;19.962;2023-02-21T06:32:47;4.03;;;2.83;;
73170;SDS011;61381;50.118;19.962;2023-02-21T06:37:50;5.35;;;3.40;;
73170;SDS011;61381;50.118;19.962;2023-02-21T06:42:51;4.40;;;2.60;;
73170;SDS011;61381;50.118;19.962;2023-02-21T06:47:52;6.28;;;3.80;;
73170;SDS011;61381;50.118;19.962;2023-02-21T06:52:54;4.18;;;2.65;;
73170;SDS011;61381;50.118;19.962;2023-02-21T06:57:55;5.82;;;3.17;;
73170;SDS011;61381;50.118;19.962;2023-02-21T07:02:56;5.13;;;3.40;;
73170;SDS011;61381;50.118;19.962;2023-02-21T07:07:59;4.45;;;2.92;;
73170;SDS011;61381;50.118;19.962;2023-02-21T07:13:00;7.60;;;3.67;;
73170;SDS011;61381;50.118;19.962;2023-02-21T07:18:02;3.72;;;2.80;;
73170;SDS011;61381;50.118;19.962;2023-02-21T07:23:04;8.45;;;3.42;;
73170;SDS011;61381;50.118;19.962;2023-02-21T07:28:05;6.50;;;2.67;;
73170;SDS011;61381;50.118;19.962;2023-02-21T07:33:07;5.88;;;3.22;;
73170;SDS011;61381;50.118;19.962;2023-02-21T07:38:20;3.92;;;2.08;;
73170;SDS011;61381;50.118;19.962;2023-02-21T07:43:23;3.72;;;2.47;;
73170;SDS011;61381;50.118;19.962;2023-02-21T07:48:24;4.43;;;1.90;;
73170;SDS011;61381;50.118;19.962;2023-02-21T07:53:26;4.07;;;2.65;;
73170;SDS011;61381;50.118;19.962;2023-02-21T07:58:28;4.93;;;2.70;;
73170;SDS011;61381;50.118;19.962;2023-02-21T08:03:29;6.22;;;3.25;;
73170;SDS011;61381;50.118;19.962;2023-02-21T08:08:31;4.18;;;2.85;;
73170;SDS011;61381;50.118;19.962;2023-02-21T08:13:33;4.45;;;3.00;;
73170;SDS011;61381;50.118;19.962;2023-02-21T08:18:34;5.38;;;3.20;;
73170;SDS011;61381;50.118;19.962;2023-02-21T08:23:36;5.05;;;3.33;;
73170;SDS011;61381;50.118;19.962;2023-02-21T08:28:37;7.95;;;2.90;;
73170;SDS011;61381;50.118;19.962;2023-02-21T08:33:38;5.47;;;3.30;;
73170;SDS011;61381;50.118;19.962;2023-02-21T08:38:41;5.60;;;3.38;;
73170;SDS011;61381;50.118;19.962;2023-02-21T08:43:42;4.05;;;2.55;;
73170;SDS011;61381;50.118;19.962;2023-02-21T08:48:43;5.65;;;3.28;;
73170;SDS011;61381;50.118;19.962;2023-02-21T08:53:46;5.88;;;3.25;;
73170;SDS011;61381;50.118;19.962;2023-02-21T08:58:47;4.90;;;2.38;;
73170;SDS011;61381;50.118;19.962;2023-02-21T09:03:48;4.15;;;2.63;;
73170;SDS011;61381;50.118;19.962;2023-02-21T09:08:51;4.38;;;3.20;;
73170;SDS011;61381;50.118;19.962;2023-02-21T09:13:52;5.10;;;3.20;;
73170;SDS011;61381;50.118;19.962;2023-02-21T09:18:54;4.60;;;2.13;;
73170;SDS011;61381;50.118;19.962;2023-02-21T09:23:57;4.20;;;2.28;;
73170;SDS011;61381;50.118;19.962;2023-02-21T09:28:58;3.35;;;2.65;;
73170;SDS011;61381;50.118;19.962;2023-02-21T09:33:59;3.80;;;2.05;;
73170;SDS011;61381;50.118;19.962;2023-02-21T09:39:02;2.85;;;2.10;;
73170;SDS011;61381;50.118;19.962;2023-02-21T09:44:04;3.08;;;2.20;;
73170;SDS011;61381;50.118;19.962;2023-02-21T09:49:10;3.13;;;2.55;;
73170;SDS011;61381;50.118;19.962;2023-02-21T09:54:20;4.85;;;2.65;;
73170;SDS011;61381;50.118;19.962;2023-02-21T09:59:24;2.17;;;1.60;;
73170;SDS011;61381;50.118;19.962;2023-02-21T10:04:28;3.70;;;2.45;;
73170;SDS011;61381;50.118;19.962;2023-02-21T10:09:39;3.60;;;2.10;;
73170;SDS011;61381;50.118;19.962;2023-02-21T10:14:48;4.45;;;2.03;;
73170;SDS011;61381;50.118;19.962;2023-02-21T10:20:10;4.18;;;2.00;;
73170;SDS011;61381;50.118;19.962;2023-02-21T10:25:20;3.53;;;1.90;;
73170;SDS011;61381;50.118;19.962;2023-02-21T10:30:26;3.03;;;1.63;;
73170;SDS011;61381;50.118;19.962;2023-02-21T10:35:31;3.00;;;2.13;;
73170;SDS011;61381;50.118;19.962;2023-02-21T10:40:34;3.80;;;2.10;;
73170;SDS011;61381;50.118;19.962;2023-02-21T10:45:39;1.55;;;0.95;;
73170;SDS011;61381;50.118;19.962;2023-02-21T10:50:44;5.88;;;1.65;;
73170;SDS011;61381;50.118;19.962;2023-02-21T11:01:10;2.20;;;1.17;;
73170;SDS011;61381;50.118;19.962;2023-02-21T11:06:26;3.42;;;1.60;;
73170;SDS011;61381;50.118;19.962;2023-02-21T11:11:35;2.22;;;1.45;;
73170;SDS011;61381;50.118;19.962;2023-02-21T11:16:38;3.40;;;1.25;;
73170;SDS011;61381;50.118;19.962;2023-02-21T11:21:39;0.60;;;0.50;;
73170;SDS011;61381;50.118;19.962;2023-02-21T11:26:44;1.67;;;0.70;;
73170;SDS011;61381;50.118;19.962;2023-02-21T11:31:48;2.65;;;1.08;;
73170;SDS011;61381;50.118;19.962;2023-02-21T11:36:50;2.97;;;1.45;;
73170;SDS011;61381;50.118;19.962;2023-02-21T11:41:53;2.40;;;1.35;;
73170;SDS011;61381;50.118;19.962;2023-02-21T11:47:01;3.42;;;1.10;;
73170;SDS011;61381;50.118;19.962;2023-02-21T11:52:10;1.85;;;1.15;;
73170;SDS011;61381;50.118;19.962;2023-02-21T11:57:16;1.40;;;0.88;;
73170;SDS011;61381;50.118;19.962;2023-02-21T12:07:53;2.35;;;1.70;;
73170;SDS011;61381;50.118;19.962;2023-02-21T12:18:21;3.28;;;1.60;;
73170;SDS011;61381;50.118;19.962;2023-02-21T12:23:32;2.17;;;1.33;;
73170;SDS011;61381;50.118;19.962;2023-02-21T12:28:57;2.45;;;1.10;;
73170;SDS011;61381;50.118;19.962;2023-02-21T12:34:09;2.55;;;1.27;;
73170;SDS011;61381;50.118;19.962;2023-02-21T12:39:27;3.88;;;1.55;;
73170;SDS011;61381;50.118;19.962;2023-02-21T12:44:53;3.42;;;1.88;;
73170;SDS011;61381;50.118;19.962;2023-02-21T12:50:03;4.03;;;2.22;;
73170;SDS011;61381;50.118;19.962;2023-02-21T12:55:11;4.88;;;2.55;;
73170;SDS011;61381;50.118;19.962;2023-02-21T13:00:18;1.83;;;1.05;;
73170;SDS011;61381;50.118;19.962;2023-02-21T13:05:22;1.60;;;1.20;;
73170;SDS011;61381;50.118;19.962;2023-02-21T13:10:29;6.20;;;1.33;;
73170;SDS011;61381;50.118;19.962;2023-02-21T13:15:35;3.28;;;1.10;;
73170;SDS011;61381;50.118;19.962;2023-02-21T13:20:40;3.55;;;1.95;;
73170;SDS011;61381;50.118;19.962;2023-02-21T13:25:49;2.65;;;1.40;;
73170;SDS011;61381;50.118;19.962;2023-02-21T13:31:01;2.28;;;1.45;;
73170;SDS011;61381;50.118;19.962;2023-02-21T13:36:13;2.00;;;1.35;;
73170;SDS011;61381;50.118;19.962;2023-02-21T13:41:20;2.28;;;1.60;;
73170;SDS011;61381;50.118;19.962;2023-02-21T13:51:48;1.73;;;1.00;;
73170;SDS011;61381;50.118;19.962;2023-02-21T13:56:50;1.67;;;1.05;;
73170;SDS011;61381;50.118;19.962;2023-02-21T14:01:51;1.17;;;0.73;;
73170;SDS011;61381;50.118;19.962;2023-02-21T14:07:17;2.17;;;1.15;;
73170;SDS011;61381;50.118;19.962;2023-02-21T14:12:50;2.40;;;1.40;;
73170;SDS011;61381;50.118;19.962;2023-02-21T14:17:54;2.45;;;1.50;;
73170;SDS011;61381;50.118;19.962;2023-02-21T14:22:58;3.40;;;1.83;;
73170;SDS011;61381;50.118;19.962;2023-02-21T14:27:59;4.78;;;2.38;;
73170;SDS011;61381;50.118;19.962;2023-02-21T14:33:08;5.18;;;2.80;;
73170;SDS011;61381;50.118;19.962;2023-02-21T14:38:20;5.90;;;2.08;;
73170;SDS011;61381;50.118;19.962;2023-02-21T14:49:03;3.55;;;2.17;;
73170;SDS011;61381;50.118;19.962;2023-02-21T14:54:35;2.25;;;1.30;;
73170;SDS011;61381;50.118;19.962;2023-02-21T15:00:02;1.77;;;1.25;;
73170;SDS011;61381;50.118;19.962;2023-02-21T15:05:16;3.63;;;1.50;;
73170;SDS011;61381;50.118;19.962;2023-02-21T15:10:22;5.40;;;1.50;;
73170;SDS011;61381;50.118;19.962;2023-02-21T15:15:25;1.67;;;1.05;;
73170;SDS011;61381;50.118;19.962;2023-02-21T15:20:28;2.28;;;1.15;;
73170;SDS011;61381;50.118;19.962;2023-02-21T15:25:32;2.35;;;1.10;;
73170;SDS011;61381;50.118;19.962;2023-02-21T15:30:35;2.63;;;0.90;;
73170;SDS011;61381;50.118;19.962;2023-02-21T15:35:39;2.80;;;1.77;;
73170;SDS011;61381;50.118;19.962;2023-02-21T15:40:46;7.93;;;2.05;;
73170;SDS011;61381;50.118;19.962;2023-02-21T15:45:49;8.15;;;1.90;;
73170;SDS011;61381;50.118;19.962;2023-02-21T15:50:53;2.95;;;1.48;;
73170;SDS011;61381;50.118;19.962;2023-02-21T16:01:22;2.47;;;1.20;;
73170;SDS011;61381;50.118;19.962;2023-02-21T16:06:24;1.73;;;0.90;;
73170;SDS011;61381;50.118;19.962;2023-02-21T16:11:37;1.63;;;1.00;;
73170;SDS011;61381;50.118;19.962;2023-02-21T16:16:42;2.45;;;1.27;;
73170;SDS011;61381;50.118;19.962;2023-02-21T16:21:43;2.67;;;1.40;;
73170;SDS011;61381;50.118;19.962;2023-02-21T16:32:08;3.15;;;2.03;;
73170;SDS011;61381;50.118;19.962;2023-02-21T16:37:16;6.47;;;2.60;;
73170;SDS011;61381;50.118;19.962;2023-02-21T16:42:19;4.43;;;2.15;;
73170;SDS011;61381;50.118;19.962;2023-02-21T16:47:20;9.18;;;4.93;;
73170;SDS011;61381;50.118;19.962;2023-02-21T16:52:21;6.15;;;2.20;;
73170;SDS011;61381;50.118;19.962;2023-02-21T16:57:24;12.35;;;3.90;;
73170;SDS011;61381;50.118;19.962;2023-02-21T17:02:25;5.25;;;2.58;;
73170;SDS011;61381;50.118;19.962;2023-02-21T17:07:26;12.52;;;6.13;;
73170;SDS011;61381;50.118;19.962;2023-02-21T17:12:29;12.75;;;7.22;;
73170;SDS011;61381;50.118;19.962;2023-02-21T17:17:30;5.25;;;1.98;;
73170;SDS011;61381;50.118;19.962;2023-02-21T17:22:31;6.63;;;3.63;;
73170;SDS011;61381;50.118;19.962;2023-02-21T17:27:34;5.63;;;2.25;;
73170;SDS011;61381;50.118;19.962;2023-02-21T17:32:35;4.93;;;2.38;;
73170;SDS011;61381;50.118;19.962;2023-02-21T17:37:36;19.67;;;4.30;;
73170;SDS011;61381;50.118;19.962;2023-02-21T17:42:38;13.45;;;5.32;;
73170;SDS011;61381;50.118;19.962;2023-02-21T17:47:40;6.68;;;2.55;;
73170;SDS011;61381;50.118;19.962;2023-02-21T17:52:41;6.40;;;3.05;;
73170;SDS011;61381;50.118;19.962;2023-02-21T17:57:43;8.10;;;4.25;;
73170;SDS011;61381;50.118;19.962;2023-02-21T18:02:45;8.20;;;4.40;;
73170;SDS011;61381;50.118;19.962;2023-02-21T18:07:46;13.85;;;6.80;;
73170;SDS011;61381;50.118;19.962;2023-02-21T18:12:49;17.92;;;6.55;;
73170;SDS011;61381;50.118;19.962;2023-02-21T18:17:51;18.55;;;6.47;;
73170;SDS011;61381;50.118;19.962;2023-02-21T18:22:52;32.72;;;12.73;;
73170;SDS011;61381;50.118;19.962;2023-02-21T18:27:54;6.18;;;3.55;;
73170;SDS011;61381;50.118;19.962;2023-02-21T18:32:55;27.75;;;8.02;;
73170;SDS011;61381;50.118;19.962;2023-02-21T18:37:57;31.42;;;11.10;;
73170;SDS011;61381;50.118;19.962;2023-02-21T18:43:00;13.10;;;5.90;;
73170;SDS011;61381;50.118;19.962;2023-02-21T18:48:01;12.45;;;4.60;;
73170;SDS011;61381;50.118;19.962;2023-02-21T18:53:02;12.48;;;5.20;;
73170;SDS011;61381;50.118;19.962;2023-02-21T18:58:05;9.70;;;5.63;;
73170;SDS011;61381;50.118;19.962;2023-02-21T19:03:07;14.30;;;5.95;;
73170;SDS011;61381;50.118;19.962;2023-02-21T19:08:09;8.88;;;3.25;;
73170;SDS011;61381;50.118;19.962;2023-02-21T19:13:12;12.68;;;4.78;;
73170;SDS011;61381;50.118;19.962;2023-02-21T19:18:13;14.70;;;5.22;;
73170;SDS011;61381;50.118;19.962;2023-02-21T19:23:14;9.73;;;4.13;;
73170;SDS011;61381;50.118;19.962;2023-02-21T19:28:17;16.92;;;7.75;;
73170;SDS011;61381;50.118;19.962;2023-02-21T19:33:18;15.00;;;5.53;;
73170;SDS011;61381;50.118;19.962;2023-02-21T19:38:19;8.70;;;4.13;;
73170;SDS011;61381;50.118;19.962;2023-02-21T19:43:22;13.32;;;3.95;;
73170;SDS011;61381;50.118;19.962;2023-02-21T19:48:23;3.90;;;1.92;;
73170;SDS011;61381;50.118;19.962;2023-02-21T19:53:24;6.20;;;2.00;;
73170;SDS011;61381;50.118;19.962;2023-02-21T19:58:27;8.98;;;3.58;;
73170;SDS011;61381;50.118;19.962;2023-02-21T20:03:28;13.85;;;3.22;;
73170;SDS011;61381;50.118;19.962;2023-02-21T20:08:30;6.85;;;3.42;;
73170;SDS011;61381;50.118;19.962;2023-02-21T20:13:33;15.02;;;6.65;;
73170;SDS011;61381;50.118;19.962;2023-02-21T20:18:34;13.77;;;4.60;;
73170;SDS011;61381;50.118;19.962;2023-02-21T20:23:35;12.05;;;3.92;;
73170;SDS011;61381;50.118;19.962;2023-02-21T20:28:37;10.40;;;3.88;;
73170;SDS011;61381;50.118;19.962;2023-02-21T20:33:39;14.82;;;4.10;;
73170;SDS011;61381;50.118;19.962;2023-02-21T20:38:40;11.93;;;4.32;;
73170;SDS011;61381;50.118;19.962;2023-02-21T20:48:43;8.95;;;3.35;;
73170;SDS011;61381;50.118;19.962;2023-02-21T20:53:45;15.20;;;4.13;;
73170;SDS011;61381;50.118;19.962;2023-02-21T21:03:48;17.88;;;4.82;;
73170;SDS011;61381;50.118;19.962;2023-02-21T21:08:49;16.67;;;5.57;;
73170;SDS011;61381;50.118;19.962;2023-02-21T21:13:52;15.40;;;4.43;;
73170;SDS011;61381;50.118;19.962;2023-02-21T21:18:53;10.43;;;3.80;;
73170;SDS011;61381;50.118;19.962;2023-02-21T21:23:54;12.40;;;4.82;;
73170;SDS011;61381;50.118;19.962;2023-02-21T21:28:57;11.23;;;4.95;;
73170;SDS011;61381;50.118;19.962;2023-02-21T21:33:58;12.57;;;4.63;;
73170;SDS011;61381;50.118;19.962;2023-02-21T21:38:59;9.68;;;4.38;;
73170;SDS011;61381;50.118;19.962;2023-02-21T21:49:02;16.00;;;4.00;;
73170;SDS011;61381;50.118;19.962;2023-02-21T21:54:04;14.32;;;4.60;;
73170;SDS011;61381;50.118;19.962;2023-02-21T21:59:07;15.15;;;4.97;;
73170;SDS011;61381;50.118;19.962;2023-02-21T22:04:09;9.70;;;4.68;;
73170;SDS011;61381;50.118;19.962;2023-02-21T22:09:10;14.43;;;4.57;;
73170;SDS011;61381;50.118;19.962;2023-02-21T22:14:15;15.00;;;5.63;;
73170;SDS011;61381;50.118;19.962;2023-02-21T22:19:18;16.65;;;5.07;;
73170;SDS011;61381;50.118;19.962;2023-02-21T22:24:20;17.35;;;5.47;;
73170;SDS011;61381;50.118;19.962;2023-02-21T22:29:24;13.90;;;5.30;;
73170;SDS011;61381;50.118;19.962;2023-02-21T22:34:25;17.33;;;4.93;;
73170;SDS011;61381;50.118;19.962;2023-02-21T22:44:29;19.10;;;5.25;;
73170;SDS011;61381;50.118;19.962;2023-02-21T22:49:30;11.77;;;5.28;;
73170;SDS011;61381;50.118;19.962;2023-02-21T22:54:31;14.60;;;5.38;;
73170;SDS011;61381;50.118;19.962;2023-02-21T22:59:34;14.95;;;5.50;;
73170;SDS011;61381;50.118;19.962;2023-02-21T23:04:35;18.10;;;5.20;;
73170;SDS011;61381;50.118;19.962;2023-02-21T23:09:36;9.85;;;3.80;;
73170;SDS011;61381;50.118;19.962;2023-02-21T23:14:39;13.45;;;5.05;;
73170;SDS011;61381;50.118;19.962;2023-02-21T23:19:42;11.40;;;4.55;;
73170;SDS011;61381;50.118;19.962;2023-02-21T23:24:43;12.77;;;4.93;;
73170;SDS011;61381;50.118;19.962;2023-02-21T23:29:45;15.48;;;4.03;;
73170;SDS011;61381;50.118;19.962;2023-02-21T23:34:46;17.90;;;5.72;;
73170;SDS011;61381;50.118;19.962;2023-02-21T23:39:47;12.38;;;4.75;;
73170;SDS011;61381;50.118;19.962;2023-02-21T23:49:51;16.42;;;5.55;;
73170;SDS011;61381;50.118;19.962;2023-02-21T23:59:54;14.60;;;5.20;;
